createdAt,value
2022-08-30T00:01:29.035Z,2.10
2022-08-30T00:03:58.333Z,2.58
2022-08-30T00:06:26.926Z,2.45
2022-08-30T00:08:55.865Z,2.42
2022-08-30T00:11:27.137Z,2.67
2022-08-30T00:13:56.543Z,2.28
2022-08-30T00:16:26.398Z,2.65
2022-08-30T00:18:53.749Z,2.33
2022-08-30T00:21:21.308Z,2.50
2022-08-30T00:23:48.436Z,2.15
2022-08-30T00:26:15.348Z,2.58
2022-08-30T00:28:42.717Z,2.55
2022-08-30T00:31:10.477Z,2.45
2022-08-30T00:33:42.108Z,2.40
2022-08-30T00:36:08.983Z,2.97
2022-08-30T00:38:36.203Z,2.80
2022-08-30T00:41:03.378Z,2.83
2022-08-30T00:43:34.215Z,2.72
2022-08-30T00:46:08.206Z,2.88
2022-08-30T00:48:43.881Z,2.38
2022-08-30T00:51:14.320Z,3.25
2022-08-30T00:53:48.788Z,3.00
2022-08-30T00:56:17.983Z,3.05
2022-08-30T00:58:49.601Z,2.97
2022-08-30T01:01:17.558Z,2.65
2022-08-30T01:03:45.994Z,2.53
2022-08-30T01:06:17.373Z,3.15
2022-08-30T01:08:47.102Z,2.60
2022-08-30T01:11:18.979Z,2.70
2022-08-30T01:13:47.545Z,2.25
2022-08-30T01:16:15.524Z,2.72
2022-08-30T01:18:42.838Z,2.60
2022-08-30T01:21:27.301Z,2.90
2022-08-30T01:23:58.649Z,2.88
2022-08-30T01:26:29.184Z,3.15
2022-08-30T01:29:04.820Z,2.92
2022-08-30T01:31:34.543Z,3.58
2022-08-30T01:34:07.514Z,3.22
2022-08-30T01:36:37.834Z,3.20
2022-08-30T01:39:17.377Z,3.55
2022-08-30T01:41:45.196Z,3.63
2022-08-30T01:44:13.941Z,3.40
2022-08-30T01:46:46.039Z,3.10
2022-08-30T01:49:18.967Z,3.60
2022-08-30T01:52:01.071Z,3.10
2022-08-30T01:54:33.369Z,3.78
2022-08-30T01:57:06.453Z,2.92
2022-08-30T01:59:33.891Z,3.15
2022-08-30T02:02:00.828Z,3.03
2022-08-30T02:04:28.001Z,3.15
2022-08-30T02:06:54.937Z,3.03
2022-08-30T02:09:22.105Z,2.75
2022-08-30T02:11:49.178Z,3.65
2022-08-30T02:14:16.240Z,3.30
2022-08-30T02:16:43.471Z,3.03
2022-08-30T02:19:11.403Z,2.90
2022-08-30T02:21:40.804Z,3.08
2022-08-30T02:24:07.793Z,3.38
2022-08-30T02:26:36.754Z,3.30
2022-08-30T02:29:05.854Z,3.28
2022-08-30T02:31:33.508Z,3.10
2022-08-30T02:34:00.667Z,3.28
2022-08-30T02:36:28.182Z,3.35
2022-08-30T02:38:55.140Z,3.55
2022-08-30T02:41:23.735Z,3.47
2022-08-30T02:43:51.579Z,4.22
2022-08-30T02:46:19.125Z,3.78
2022-08-30T02:48:46.313Z,3.50
2022-08-30T02:51:14.591Z,3.70
2022-08-30T02:53:44.090Z,4.30
2022-08-30T02:56:14.140Z,3.45
2022-08-30T02:58:42.711Z,3.95
2022-08-30T03:01:13.486Z,3.40
2022-08-30T03:03:42.968Z,3.58
2022-08-30T03:06:12.902Z,4.43
2022-08-30T03:08:39.903Z,3.70
2022-08-30T03:11:07.372Z,4.53
2022-08-30T03:13:34.407Z,3.83
2022-08-30T03:16:01.436Z,4.28
2022-08-30T03:18:28.705Z,3.90
2022-08-30T03:20:55.773Z,4.38
2022-08-30T03:23:24.114Z,4.22
2022-08-30T03:25:53.350Z,4.15
2022-08-30T03:28:21.373Z,4.20
2022-08-30T03:30:48.489Z,4.47
2022-08-30T03:33:16.069Z,4.05
2022-08-30T03:35:45.637Z,4.25
2022-08-30T03:38:12.670Z,4.50
2022-08-30T03:40:39.953Z,4.15
2022-08-30T03:43:07.602Z,4.30
2022-08-30T03:45:35.904Z,4.45
2022-08-30T03:48:03.732Z,3.85
2022-08-30T03:50:31.604Z,3.97
2022-08-30T03:53:01.328Z,4.50
2022-08-30T03:55:30.435Z,3.88
2022-08-30T03:57:58.485Z,4.75
2022-08-30T04:00:25.879Z,4.30
2022-08-30T04:02:52.815Z,4.00
2022-08-30T04:05:21.631Z,4.85
2022-08-30T04:07:48.615Z,5.13
2022-08-30T04:10:16.176Z,4.15
2022-08-30T04:12:47.423Z,5.68
2022-08-30T04:15:18.851Z,4.70
2022-08-30T04:17:46.497Z,4.45
2022-08-30T04:20:13.465Z,4.57
2022-08-30T04:22:40.817Z,4.63
2022-08-30T04:25:08.882Z,4.35
2022-08-30T04:27:46.469Z,4.43
2022-08-30T04:30:16.921Z,4.25
2022-08-30T04:32:44.811Z,4.57
2022-08-30T04:35:13.244Z,4.30
2022-08-30T04:37:40.517Z,5.03
2022-08-30T04:40:08.633Z,5.03
2022-08-30T04:42:36.595Z,4.07
2022-08-30T04:45:10.960Z,5.15
2022-08-30T04:47:39.345Z,4.63
2022-08-30T04:50:10.150Z,4.82
2022-08-30T04:52:37.719Z,5.00
2022-08-30T04:55:06.221Z,4.72
2022-08-30T04:57:33.241Z,5.20
2022-08-30T05:00:00.319Z,5.95
2022-08-30T05:02:28.010Z,5.50
2022-08-30T05:05:14.173Z,5.20
2022-08-30T05:07:41.727Z,6.65
2022-08-30T05:10:11.355Z,14.00
2022-08-30T05:12:40.541Z,8.45
2022-08-30T05:15:08.393Z,6.30
2022-08-30T05:17:38.036Z,5.28
2022-08-30T05:20:07.279Z,5.47
2022-08-30T05:22:37.729Z,5.50
2022-08-30T05:25:06.969Z,5.18
2022-08-30T05:27:34.455Z,5.15
2022-08-30T05:30:06.451Z,5.40
2022-08-30T05:32:33.324Z,5.53
2022-08-30T05:35:00.348Z,6.22
2022-08-30T05:37:27.813Z,5.25
2022-08-30T05:39:56.557Z,5.97
2022-08-30T05:42:23.527Z,5.75
2022-08-30T05:44:52.708Z,5.18
2022-08-30T05:47:21.333Z,5.90
2022-08-30T05:49:48.922Z,5.38
2022-08-30T05:52:18.118Z,5.85
2022-08-30T05:54:46.537Z,5.25
2022-08-30T05:57:13.540Z,5.28
2022-08-30T05:59:40.631Z,5.50
2022-08-30T06:02:07.629Z,4.95
2022-08-30T06:04:36.413Z,5.15
2022-08-30T06:07:04.241Z,5.57
2022-08-30T06:09:32.163Z,5.03
2022-08-30T06:11:59.192Z,5.05
2022-08-30T06:14:26.124Z,5.75
2022-08-30T06:16:53.847Z,5.50
2022-08-30T06:19:22.698Z,6.38
2022-08-30T06:21:51.625Z,5.22
2022-08-30T06:24:18.958Z,5.78
2022-08-30T06:26:47.669Z,5.82
2022-08-30T06:29:19.180Z,5.25
2022-08-30T06:31:47.364Z,5.63
2022-08-30T06:34:15.699Z,6.20
2022-08-30T06:36:43.044Z,6.65
2022-08-30T06:39:11.063Z,6.30
2022-08-30T06:41:40.756Z,5.53
2022-08-30T06:44:21.034Z,6.53
2022-08-30T06:46:48.141Z,5.88
2022-08-30T06:49:15.409Z,6.43
2022-08-30T06:51:42.282Z,6.90
2022-08-30T06:54:12.285Z,6.40
2022-08-30T06:56:48.684Z,6.13
2022-08-30T06:59:26.919Z,6.07
2022-08-30T07:01:55.269Z,6.35
2022-08-30T07:04:22.586Z,6.18
2022-08-30T07:06:49.716Z,11.95
2022-08-30T07:09:17.627Z,9.02
2022-08-30T07:11:44.695Z,7.07
2022-08-30T07:14:11.737Z,6.72
2022-08-30T07:16:39.124Z,7.03
2022-08-30T07:19:06.878Z,6.60
2022-08-30T07:21:45.089Z,8.18
2022-08-30T07:24:13.570Z,7.07
2022-08-30T07:26:49.057Z,6.05
2022-08-30T07:29:17.313Z,6.03
2022-08-30T07:31:46.932Z,5.60
2022-08-30T07:34:13.879Z,4.80
2022-08-30T07:36:40.834Z,5.75
2022-08-30T07:39:08.148Z,6.63
2022-08-30T07:41:38.747Z,5.47
2022-08-30T07:44:08.232Z,6.20
2022-08-30T07:46:37.589Z,5.65
2022-08-30T07:49:11.019Z,5.15
2022-08-30T07:51:40.322Z,5.15
2022-08-30T07:54:08.205Z,5.47
2022-08-30T07:56:36.354Z,5.55
2022-08-30T07:59:03.833Z,8.10
2022-08-30T08:01:31.090Z,5.20
2022-08-30T08:03:59.120Z,5.75
2022-08-30T08:06:27.593Z,5.10
2022-08-30T08:09:02.224Z,4.70
2022-08-30T08:11:33.445Z,4.30
2022-08-30T08:14:01.434Z,4.35
2022-08-30T08:16:31.304Z,4.40
2022-08-30T08:18:58.581Z,4.05
2022-08-30T08:21:26.121Z,4.05
2022-08-30T08:23:54.056Z,4.15
2022-08-30T08:26:22.172Z,3.65
2022-08-30T08:28:49.171Z,2.97
2022-08-30T08:31:19.124Z,2.78
2022-08-30T08:33:46.284Z,2.75
2022-08-30T08:36:13.585Z,3.03
2022-08-30T08:38:40.693Z,2.53
2022-08-30T08:41:28.046Z,2.13
2022-08-30T08:43:55.171Z,2.72
2022-08-30T08:46:37.924Z,2.00
2022-08-30T08:49:07.288Z,2.17
2022-08-30T08:51:58.593Z,2.28
2022-08-30T08:54:42.195Z,1.98
2022-08-30T08:57:13.854Z,1.70
2022-08-30T08:59:45.065Z,1.92
2022-08-30T09:02:36.390Z,1.65
2022-08-30T09:05:04.237Z,1.50
2022-08-30T09:07:38.191Z,1.30
2022-08-30T09:10:06.502Z,1.20
2022-08-30T09:12:33.559Z,1.48
2022-08-30T09:15:17.680Z,1.10
2022-08-30T09:18:02.450Z,1.00
2022-08-30T09:20:49.549Z,0.90
2022-08-30T09:23:17.518Z,1.17
2022-08-30T09:25:57.902Z,0.88
2022-08-30T09:28:49.450Z,0.90
2022-08-30T09:31:33.968Z,0.95
2022-08-30T09:34:03.995Z,0.80
2022-08-30T09:36:43.968Z,0.80
2022-08-30T09:39:33.604Z,0.50
2022-08-30T09:42:28.753Z,3.28
2022-08-30T09:45:10.334Z,1.25
2022-08-30T09:47:42.024Z,0.90
2022-08-30T09:50:20.303Z,0.60
2022-08-30T09:53:10.513Z,0.70
2022-08-30T09:55:46.683Z,0.55
2022-08-30T09:58:48.361Z,0.40
2022-08-30T10:01:23.717Z,0.47
2022-08-30T10:03:57.904Z,0.82
2022-08-30T10:06:51.922Z,0.70
2022-08-30T10:09:54.796Z,0.52
2022-08-30T10:12:54.641Z,0.70
2022-08-30T10:15:28.939Z,0.50
2022-08-30T10:18:13.754Z,0.50
2022-08-30T10:20:43.757Z,0.40
2022-08-30T10:23:36.570Z,0.50
2022-08-30T10:26:25.609Z,0.52
2022-08-30T10:29:25.601Z,0.50
2022-08-30T10:32:17.691Z,0.43
2022-08-30T10:34:56.031Z,0.50
2022-08-30T10:37:30.167Z,0.47
2022-08-30T10:40:26.556Z,0.55
2022-08-30T10:42:56.435Z,0.50
2022-08-30T10:45:26.901Z,1.10
2022-08-30T10:48:19.300Z,0.90
2022-08-30T10:50:53.867Z,0.52
2022-08-30T10:53:44.027Z,0.50
2022-08-30T10:56:18.618Z,0.80
2022-08-30T10:58:45.935Z,0.65
2022-08-30T11:01:46.636Z,0.50
2022-08-30T11:04:30.445Z,0.65
2022-08-30T11:07:26.692Z,0.45
2022-08-30T11:10:15.055Z,0.57
2022-08-30T11:13:03.467Z,0.95
2022-08-30T11:16:01.382Z,0.60
2022-08-30T11:18:33.563Z,0.50
2022-08-30T11:24:20.966Z,0.90
2022-08-30T11:26:51.025Z,0.98
2022-08-30T11:29:32.954Z,1.02
2022-08-30T11:32:19.613Z,0.85
2022-08-30T11:34:46.452Z,0.70
2022-08-30T11:37:40.741Z,0.77
2022-08-30T11:40:19.313Z,0.60
2022-08-30T11:42:50.804Z,1.70
2022-08-30T11:45:25.476Z,0.90
2022-08-30T11:48:09.376Z,0.80
2022-08-30T11:51:00.296Z,2.10
2022-08-30T11:53:59.017Z,1.05
2022-08-30T11:56:53.644Z,0.60
2022-08-30T12:00:02.073Z,0.63
2022-08-30T12:03:20.994Z,0.70
2022-08-30T12:05:59.934Z,0.52
2022-08-30T12:08:34.404Z,0.57
2022-08-30T12:11:13.537Z,1.17
2022-08-30T12:13:43.582Z,0.70
2022-08-30T12:16:26.010Z,0.63
2022-08-30T12:19:00.213Z,0.68
2022-08-30T12:21:43.718Z,0.60
2022-08-30T12:24:26.941Z,0.50
2022-08-30T12:26:54.820Z,0.65
2022-08-30T12:29:28.586Z,0.60
2022-08-30T12:32:08.411Z,0.60
2022-08-30T12:34:43.427Z,0.80
2022-08-30T12:37:33.174Z,0.70
2022-08-30T12:40:22.820Z,0.50
2022-08-30T12:43:16.870Z,0.70
2022-08-30T12:46:15.424Z,4.32
2022-08-30T12:48:44.093Z,1.33
2022-08-30T12:51:36.794Z,1.00
2022-08-30T12:54:29.634Z,0.70
2022-08-30T12:59:59.269Z,0.80
2022-08-30T13:02:51.963Z,0.68
2022-08-30T13:05:34.315Z,0.60
2022-08-30T13:08:22.476Z,0.80
2022-08-30T13:11:18.272Z,1.00
2022-08-30T13:13:53.059Z,1.23
2022-08-30T13:16:26.518Z,1.00
2022-08-30T13:19:26.027Z,1.00
2022-08-30T13:21:58.672Z,1.10
2022-08-30T13:24:27.873Z,0.70
2022-08-30T13:27:02.351Z,0.90
2022-08-30T13:29:30.005Z,0.95
2022-08-30T13:31:57.807Z,1.30
2022-08-30T13:34:24.906Z,1.20
2022-08-30T13:36:56.374Z,1.20
2022-08-30T13:39:24.150Z,0.90
2022-08-30T13:41:52.165Z,1.20
2022-08-30T13:50:02.952Z,1.00
2022-08-30T13:52:30.067Z,0.98
2022-08-30T13:54:58.253Z,1.08
2022-08-30T14:03:14.400Z,1.33
2022-08-30T14:05:57.059Z,1.35
2022-08-30T14:08:52.363Z,1.08
2022-08-30T14:11:22.544Z,1.38
2022-08-30T14:16:42.728Z,1.55
2022-08-30T14:19:12.405Z,1.38
2022-08-30T14:21:39.828Z,1.05
2022-08-30T14:24:07.134Z,1.40
2022-08-30T14:26:45.845Z,1.35
2022-08-30T14:29:16.896Z,1.20
2022-08-30T14:31:44.682Z,2.00
2022-08-30T14:34:14.129Z,1.40
2022-08-30T14:36:43.473Z,1.30
2022-08-30T14:39:15.153Z,1.30
2022-08-30T14:41:46.607Z,1.42
2022-08-30T14:44:15.517Z,1.40
2022-08-30T14:46:44.320Z,1.25
2022-08-30T14:49:13.203Z,1.55
2022-08-30T14:51:41.255Z,1.60
2022-08-30T14:54:10.118Z,2.45
2022-08-30T14:56:39.312Z,1.55
2022-08-30T14:59:07.431Z,1.45
2022-08-30T15:01:36.943Z,2.10
2022-08-30T15:04:07.443Z,3.50
2022-08-30T15:06:37.438Z,1.70
2022-08-30T15:09:07.090Z,1.30
2022-08-30T15:11:35.056Z,1.30
2022-08-30T15:14:02.164Z,1.00
2022-08-30T15:16:34.053Z,1.42
2022-08-30T15:19:02.332Z,1.25
2022-08-30T15:21:36.735Z,4.13
2022-08-30T15:24:05.849Z,2.58
2022-08-30T15:26:33.464Z,1.60
2022-08-30T15:29:00.571Z,1.73
2022-08-30T15:31:28.987Z,1.58
2022-08-30T15:33:56.647Z,1.25
2022-08-30T15:36:25.197Z,1.08
2022-08-30T15:38:55.797Z,1.30
2022-08-30T15:41:23.575Z,1.00
2022-08-30T15:43:51.531Z,1.10
2022-08-30T15:46:29.700Z,1.20
2022-08-30T15:49:03.102Z,1.00
2022-08-30T15:51:41.432Z,1.10
2022-08-30T15:54:11.598Z,1.10
2022-08-30T15:56:41.914Z,1.33
2022-08-30T15:59:10.769Z,1.20
2022-08-30T16:01:38.344Z,2.75
2022-08-30T16:04:06.295Z,1.90
2022-08-30T16:06:37.448Z,1.23
2022-08-30T16:09:06.160Z,1.42
2022-08-30T16:11:34.178Z,1.00
2022-08-30T16:14:02.009Z,1.20
2022-08-30T16:16:30.938Z,1.40
2022-08-30T16:18:58.163Z,1.15
2022-08-30T16:21:31.573Z,1.20
2022-08-30T16:24:02.523Z,1.55
2022-08-30T16:26:31.620Z,1.58
2022-08-30T16:28:59.173Z,1.05
2022-08-30T16:31:29.236Z,1.33
2022-08-30T16:34:02.478Z,1.20
2022-08-30T16:36:32.473Z,1.15
2022-08-30T16:38:59.984Z,1.20
2022-08-30T16:41:27.952Z,1.20
2022-08-30T16:43:55.486Z,2.42
2022-08-30T16:46:27.245Z,1.20
2022-08-30T16:48:58.609Z,1.20
2022-08-30T16:51:28.004Z,1.20
2022-08-30T16:54:03.353Z,0.95
2022-08-30T16:56:32.620Z,1.42
2022-08-30T16:59:02.571Z,4.18
2022-08-30T17:01:37.513Z,2.88
2022-08-30T17:04:06.401Z,1.95
2022-08-30T17:06:35.476Z,1.42
2022-08-30T17:09:04.513Z,1.42
2022-08-30T17:11:33.572Z,1.30
2022-08-30T17:14:01.469Z,2.15
2022-08-30T17:16:30.059Z,2.47
2022-08-30T17:18:59.712Z,1.67
2022-08-30T17:21:46.092Z,1.88
2022-08-30T17:24:13.248Z,1.88
2022-08-30T17:26:40.334Z,1.30
2022-08-30T17:29:07.935Z,1.58
2022-08-30T17:31:35.928Z,6.28
2022-08-30T17:34:05.600Z,2.40
2022-08-30T17:36:35.512Z,1.73
2022-08-30T17:39:11.253Z,2.10
2022-08-30T17:41:49.178Z,12.02
2022-08-30T17:44:21.819Z,4.72
2022-08-30T17:46:53.606Z,2.40
2022-08-30T17:49:21.240Z,1.90
2022-08-30T17:51:56.268Z,1.55
2022-08-30T17:54:25.769Z,1.40
2022-08-30T17:56:53.454Z,1.67
2022-08-30T18:02:08.079Z,1.85
2022-08-30T18:04:41.766Z,1.40
2022-08-30T18:07:12.004Z,1.77
2022-08-30T18:09:40.662Z,1.90
2022-08-30T18:12:07.918Z,3.42
2022-08-30T18:14:35.606Z,3.63
2022-08-30T18:17:07.300Z,3.70
2022-08-30T18:19:34.605Z,2.33
2022-08-30T18:22:03.329Z,1.55
2022-08-30T18:24:31.249Z,1.42
2022-08-30T18:26:58.645Z,1.35
2022-08-30T18:29:30.235Z,1.80
2022-08-30T18:32:01.456Z,1.55
2022-08-30T18:34:29.540Z,1.38
2022-08-30T18:36:57.026Z,1.52
2022-08-30T18:39:24.633Z,1.13
2022-08-30T18:41:52.919Z,1.73
2022-08-30T18:44:28.275Z,1.63
2022-08-30T18:46:57.627Z,1.77
2022-08-30T18:49:32.416Z,1.33
2022-08-30T18:52:01.684Z,1.80
2022-08-30T18:54:29.834Z,1.70
2022-08-30T18:56:56.899Z,1.35
2022-08-30T18:59:24.365Z,1.67
2022-08-30T19:02:03.213Z,2.20
2022-08-30T19:04:35.267Z,1.83
2022-08-30T19:07:10.052Z,1.40
2022-08-30T19:09:38.371Z,1.65
2022-08-30T19:12:09.369Z,1.25
2022-08-30T19:14:36.989Z,1.65
2022-08-30T19:17:06.886Z,1.67
2022-08-30T19:19:36.149Z,2.10
2022-08-30T19:22:13.657Z,1.70
2022-08-30T19:24:42.144Z,1.63
2022-08-30T19:27:10.532Z,1.80
2022-08-30T19:29:37.644Z,2.38
2022-08-30T19:32:04.576Z,1.80
2022-08-30T19:34:31.559Z,1.65
2022-08-30T19:36:58.708Z,2.40
2022-08-30T19:39:26.485Z,2.03
2022-08-30T19:41:53.834Z,1.80
2022-08-30T19:44:21.177Z,1.42
2022-08-30T19:46:53.135Z,1.55
2022-08-30T19:49:20.727Z,1.50
2022-08-30T19:51:48.834Z,2.80
2022-08-30T19:54:15.802Z,2.60
2022-08-30T19:56:44.826Z,2.40
2022-08-30T19:59:11.749Z,3.25
2022-08-30T20:01:39.047Z,5.00
2022-08-30T20:04:06.396Z,2.60
2022-08-30T20:06:33.828Z,2.17
2022-08-30T20:09:01.951Z,2.15
2022-08-30T20:11:29.432Z,1.90
2022-08-30T20:13:57.222Z,1.65
2022-08-30T20:16:33.048Z,1.77
2022-08-30T20:19:07.675Z,1.50
2022-08-30T20:21:36.283Z,1.52
2022-08-30T20:24:04.673Z,1.83
2022-08-30T20:24:26.361Z,1.50
2022-08-30T20:26:38.033Z,1.70
2022-08-30T20:29:05.922Z,1.45
2022-08-30T20:31:34.479Z,2.03
2022-08-30T20:34:02.114Z,1.88
2022-08-30T20:36:29.087Z,2.05
2022-08-30T20:38:56.010Z,1.77
2022-08-30T20:41:24.945Z,1.92
2022-08-30T20:43:52.840Z,1.73
2022-08-30T20:46:21.320Z,1.73
2022-08-30T20:48:48.512Z,1.65
2022-08-30T20:51:18.962Z,1.83
2022-08-30T20:53:46.604Z,1.80
2022-08-30T20:56:18.381Z,1.50
2022-08-30T20:58:46.326Z,1.38
2022-08-30T21:01:14.825Z,1.45
2022-08-30T21:03:43.951Z,1.50
2022-08-30T21:06:15.109Z,1.33
2022-08-30T21:08:42.439Z,1.02
2022-08-30T21:11:09.664Z,1.02
2022-08-30T21:13:38.080Z,1.77
2022-08-30T21:16:05.847Z,1.40
2022-08-30T21:18:35.315Z,1.27
2022-08-30T21:21:14.894Z,1.10
2022-08-30T21:23:42.756Z,0.98
2022-08-30T21:26:10.581Z,1.00
2022-08-30T21:28:38.767Z,0.80
2022-08-30T21:31:08.169Z,0.93
2022-08-30T21:33:36.297Z,1.02
2022-08-30T21:36:24.152Z,0.77
2022-08-30T21:38:52.655Z,1.13
2022-08-30T21:41:21.918Z,13.85
2022-08-30T21:43:49.748Z,4.15
2022-08-30T21:46:17.450Z,6.93
2022-08-30T21:48:46.474Z,2.47
2022-08-30T21:51:13.876Z,1.23
2022-08-30T21:53:41.306Z,1.00
2022-08-30T21:56:21.849Z,1.00
2022-08-30T21:58:50.468Z,0.80
2022-08-30T22:01:24.176Z,1.00
2022-08-30T22:03:54.877Z,0.93
2022-08-30T22:06:22.209Z,1.10
2022-08-30T22:08:52.642Z,1.25
2022-08-30T22:11:23.848Z,1.20
2022-08-30T22:13:53.722Z,1.45
2022-08-30T22:16:21.958Z,1.40
2022-08-30T22:18:49.423Z,1.10
2022-08-30T22:21:21.208Z,1.15
2022-08-30T22:23:48.227Z,1.23
2022-08-30T22:26:17.756Z,0.93
2022-08-30T22:28:44.996Z,0.93
2022-08-30T22:31:15.744Z,0.90
2022-08-30T22:33:44.542Z,0.75
2022-08-30T22:36:19.667Z,1.10
2022-08-30T22:38:48.536Z,1.17
2022-08-30T22:41:18.682Z,0.68
2022-08-30T22:43:48.494Z,0.80
2022-08-30T22:46:17.488Z,0.60
2022-08-30T22:48:46.969Z,0.90
2022-08-30T22:51:15.385Z,1.27
2022-08-30T22:53:45.188Z,1.42
2022-08-30T22:56:16.302Z,1.10
2022-08-30T22:58:45.187Z,1.02
2022-08-30T23:01:24.827Z,0.90
2022-08-30T23:03:53.853Z,1.40
2022-08-30T23:06:20.711Z,0.85
2022-08-30T23:08:48.220Z,0.85
2022-08-30T23:11:16.620Z,0.90
2022-08-30T23:13:43.967Z,0.80
2022-08-30T23:16:14.003Z,0.98
2022-08-30T23:18:43.793Z,0.82
2022-08-30T23:21:24.248Z,0.80
2022-08-30T23:24:11.606Z,0.88
2022-08-30T23:26:58.704Z,0.82
2022-08-30T23:29:44.606Z,0.90
2022-08-30T23:32:31.326Z,0.70
2022-08-30T23:35:16.640Z,0.95
2022-08-30T23:38:02.271Z,0.80
2022-08-30T23:40:47.730Z,0.70
2022-08-30T23:43:33.617Z,1.13
2022-08-30T23:46:19.461Z,1.10
2022-08-30T23:49:06.979Z,0.98
2022-08-30T23:51:54.192Z,1.00
2022-08-30T23:57:25.716Z,0.88
